Crescent City, FL (32112)

11:45 PM EST on March 02, 2015 (GMT -0500)
South end of Crescent Lake | Change Station
CLOSE
Current Station
Personal Weather Station
Location: Crescent City, FL
Elevation: 16 ft
Nearby Weather Stations

Elev 16 ft 29.39 °N, 81.47 °W | Updated 32 seconds ago

Fog
Fog
64.6 °F
Feels Like 64.6 °F
N
1.0
Wind Variable Wind from North
Gusts 6.0 mph

Today
High -- | Low -- °F
--% Chance of Precip.
Yesterday
High -- | Low -- °F
Precip. -- in
6:50 AM 6:26 PM
Waxing Gibbous, 94% visible
Pressure 30.24 in
Visibility 0.2 miles
Clouds Mostly Cloudy 300 ft
Dew Point 63 °F
Humidity 95%
Rainfall 0.00 in
Snow Depth Not available.
UV 0 out of 12
Pollen 10.20 out of 12
Air Quality Not available.
Flu Activity Not available.
SPECI KDAB 030427Z 08003KT 1/4SM FG BKN003 18/17 A3024 RMK AO2 T01780172

More Conditions Fewer Conditions

Pressure 30.24 in
Visibility 0.2 miles
Clouds Mostly Cloudy 300 ft
Dew Point 63 °F
Humidity 95%
Rainfall 0.00 in
Snow Depth Not available.
UV 0 out of 12
Pollen 10.20 out of 12
Air Quality Not available.
Flu Activity Not available.
SPECI KDAB 030427Z 08003KT 1/4SM FG BKN003 18/17 A3024 RMK AO2 T01780172

More Conditions Fewer Conditions

10-Day Weather Forecast

Almanac

Astronomy

Mar. 02, 2015 Rise Set
Actual Time
Civil Twilight
Nautical Twilight
Astronomical Twilight
Moon
Length of Visible Light
Length of Day
Tomorrow will be .
, % of the Moon is Illuminated

Today's Extremes

State Highs State Lows

Community

WunderPhotos

Upload Photos

1,802,064 photos uploaded!

WunderBlogs® & News

Nearby

Air Quality

  Air Quality AQ Index Pollutant
Not available.

Snow Depth

Station Depth Elevation

Earthquake Activity

City Distance Mag. Time & Date
Minimum magnitude displayed is 2.5.

Coastal Water Temperatures

Place Temperature

Nearby Weather Stations